sensor_id;sensor_type;location;lat;lon;timestamp;pressure;altitude;pressure_sealevel;temperature
29701;BMP280;57917;51.380;-0.176;2024-03-22T00:01:03;101844.69;;;12.02
29701;BMP280;57917;51.380;-0.176;2024-03-22T00:06:54;101838.81;;;11.95
29701;BMP280;57917;51.380;-0.176;2024-03-22T00:12:40;101834.53;;;11.89
29701;BMP280;57917;51.380;-0.176;2024-03-22T00:18:28;101831.97;;;11.68
29701;BMP280;57917;51.380;-0.176;2024-03-22T00:24:14;101838.31;;;11.98
29701;BMP280;57917;51.380;-0.176;2024-03-22T00:30:11;101814.94;;;11.95
29701;BMP280;57917;51.380;-0.176;2024-03-22T00:36:01;101814.81;;;11.80
29701;BMP280;57917;51.380;-0.176;2024-03-22T00:41:47;101805.22;;;11.74
29701;BMP280;57917;51.380;-0.176;2024-03-22T00:47:33;101781.91;;;11.76
29701;BMP280;57917;51.380;-0.176;2024-03-22T00:53:20;101768.31;;;11.68
29701;BMP280;57917;51.380;-0.176;2024-03-22T00:59:05;101769.66;;;11.75
29701;BMP280;57917;51.380;-0.176;2024-03-22T01:04:53;101756.31;;;11.60
29701;BMP280;57917;51.380;-0.176;2024-03-22T01:10:44;101756.53;;;11.54
29701;BMP280;57917;51.380;-0.176;2024-03-22T01:16:30;101740.72;;;11.69
29701;BMP280;57917;51.380;-0.176;2024-03-22T01:22:22;101722.88;;;11.59
29701;BMP280;57917;51.380;-0.176;2024-03-22T01:28:08;101727.16;;;11.65
29701;BMP280;57917;51.380;-0.176;2024-03-22T01:33:54;101721.03;;;11.65
29701;BMP280;57917;51.380;-0.176;2024-03-22T01:39:40;101710.16;;;11.61
29701;BMP280;57917;51.380;-0.176;2024-03-22T01:45:31;101686.25;;;11.56
29701;BMP280;57917;51.380;-0.176;2024-03-22T01:51:18;101677.84;;;11.69
29701;BMP280;57917;51.380;-0.176;2024-03-22T01:57:05;101664.75;;;11.53
29701;BMP280;57917;51.380;-0.176;2024-03-22T02:02:51;101671.34;;;11.50
29701;BMP280;57917;51.380;-0.176;2024-03-22T02:08:36;101643.44;;;11.32
29701;BMP280;57917;51.380;-0.176;2024-03-22T02:14:23;101637.91;;;11.44
29701;BMP280;57917;51.380;-0.176;2024-03-22T02:20:09;101635.25;;;11.44
29701;BMP280;57917;51.380;-0.176;2024-03-22T02:25:57;101631.13;;;11.21
29701;BMP280;57917;51.380;-0.176;2024-03-22T02:31:43;101626.75;;;11.37
29701;BMP280;57917;51.380;-0.176;2024-03-22T02:37:29;101623.03;;;11.38
29701;BMP280;57917;51.380;-0.176;2024-03-22T02:43:15;101612.88;;;11.25
29701;BMP280;57917;51.380;-0.176;2024-03-22T02:49:03;101601.97;;;11.21
29701;BMP280;57917;51.380;-0.176;2024-03-22T02:54:49;101609.22;;;11.31
29701;BMP280;57917;51.380;-0.176;2024-03-22T03:00:38;101591.22;;;11.38
29701;BMP280;57917;51.380;-0.176;2024-03-22T03:06:24;101573.78;;;11.52
29701;BMP280;57917;51.380;-0.176;2024-03-22T03:12:11;101565.72;;;11.79
29701;BMP280;57917;51.380;-0.176;2024-03-22T03:17:57;101587.41;;;11.71
29701;BMP280;57917;51.380;-0.176;2024-03-22T03:23:43;101582.13;;;11.76
29701;BMP280;57917;51.380;-0.176;2024-03-22T03:29:29;101573.16;;;11.87
29701;BMP280;57917;51.380;-0.176;2024-03-22T03:35:15;101575.00;;;11.86
29701;BMP280;57917;51.380;-0.176;2024-03-22T03:41:01;101575.00;;;11.86
29701;BMP280;57917;51.380;-0.176;2024-03-22T03:46:47;101566.53;;;11.94
29701;BMP280;57917;51.380;-0.176;2024-03-22T03:52:32;101560.16;;;11.90
29701;BMP280;57917;51.380;-0.176;2024-03-22T03:58:18;101562.56;;;11.92
29701;BMP280;57917;51.380;-0.176;2024-03-22T04:04:04;101570.16;;;11.73
29701;BMP280;57917;51.380;-0.176;2024-03-22T04:09:50;101552.69;;;11.77
29701;BMP280;57917;51.380;-0.176;2024-03-22T04:15:36;101540.69;;;11.65
29701;BMP280;57917;51.380;-0.176;2024-03-22T04:21:22;101538.09;;;11.70
29701;BMP280;57917;51.380;-0.176;2024-03-22T04:27:09;101542.28;;;11.56
29701;BMP280;57917;51.380;-0.176;2024-03-22T04:32:55;101553.19;;;11.64
29701;BMP280;57917;51.380;-0.176;2024-03-22T04:38:41;101550.22;;;11.61
29701;BMP280;57917;51.380;-0.176;2024-03-22T04:44:26;101555.56;;;11.71
29701;BMP280;57917;51.380;-0.176;2024-03-22T04:50:12;101554.88;;;11.95
29701;BMP280;57917;51.380;-0.176;2024-03-22T04:56:00;101540.28;;;11.93
29701;BMP280;57917;51.380;-0.176;2024-03-22T05:01:46;101549.81;;;11.79
29701;BMP280;57917;51.380;-0.176;2024-03-22T05:07:32;101533.03;;;11.73
29701;BMP280;57917;51.380;-0.176;2024-03-22T05:13:18;101535.69;;;11.68
29701;BMP280;57917;51.380;-0.176;2024-03-22T05:19:05;101535.72;;;11.78
29701;BMP280;57917;51.380;-0.176;2024-03-22T05:24:50;101542.63;;;11.84
29701;BMP280;57917;51.380;-0.176;2024-03-22T05:30:36;101544.72;;;11.77
29701;BMP280;57917;51.380;-0.176;2024-03-22T05:36:22;101541.50;;;11.65
29701;BMP280;57917;51.380;-0.176;2024-03-22T05:42:08;101543.69;;;11.83
29701;BMP280;57917;51.380;-0.176;2024-03-22T05:47:54;101535.72;;;11.78
29701;BMP280;57917;51.380;-0.176;2024-03-22T05:53:40;101552.66;;;11.72
29701;BMP280;57917;51.380;-0.176;2024-03-22T05:59:27;101554.31;;;11.78
29701;BMP280;57917;51.380;-0.176;2024-03-22T06:05:13;101547.16;;;11.79
29701;BMP280;57917;51.380;-0.176;2024-03-22T06:10:59;101534.72;;;11.99
29701;BMP280;57917;51.380;-0.176;2024-03-22T06:16:45;101537.84;;;11.76
29701;BMP280;57917;51.380;-0.176;2024-03-22T06:22:31;101542.06;;;11.72
29701;BMP280;57917;51.380;-0.176;2024-03-22T06:28:17;101539.41;;;11.77
29701;BMP280;57917;51.380;-0.176;2024-03-22T06:34:03;101535.75;;;11.98
29701;BMP280;57917;51.380;-0.176;2024-03-22T06:39:49;101517.69;;;12.00
29701;BMP280;57917;51.380;-0.176;2024-03-22T06:45:35;101529.66;;;11.93
29701;BMP280;57917;51.380;-0.176;2024-03-22T06:51:21;101537.34;;;11.94
29701;BMP280;57917;51.380;-0.176;2024-03-22T06:57:07;101521.69;;;11.98
29701;BMP280;57917;51.380;-0.176;2024-03-22T07:02:53;101536.28;;;11.95
29701;BMP280;57917;51.380;-0.176;2024-03-22T07:08:41;101525.16;;;12.08
29701;BMP280;57917;51.380;-0.176;2024-03-22T07:14:28;101518.78;;;12.14
29701;BMP280;57917;51.380;-0.176;2024-03-22T07:20:17;101506.88;;;12.07
29701;BMP280;57917;51.380;-0.176;2024-03-22T07:26:04;101520.91;;;12.12
29701;BMP280;57917;51.380;-0.176;2024-03-22T07:31:51;101535.00;;;12.23
29701;BMP280;57917;51.380;-0.176;2024-03-22T07:37:40;101515.63;;;12.12
29701;BMP280;57917;51.380;-0.176;2024-03-22T07:43:29;101510.31;;;12.12
29701;BMP280;57917;51.380;-0.176;2024-03-22T07:49:48;101524.66;;;12.31
29701;BMP280;57917;51.380;-0.176;2024-03-22T07:56:07;101511.66;;;12.60
29701;BMP280;57917;51.380;-0.176;2024-03-22T08:01:53;101511.94;;;12.53
29701;BMP280;57917;51.380;-0.176;2024-03-22T08:07:39;101511.91;;;12.63
29701;BMP280;57917;51.380;-0.176;2024-03-22T08:13:25;101525.75;;;12.45
29701;BMP280;57917;51.380;-0.176;2024-03-22T08:19:14;101534.47;;;12.46
29701;BMP280;57917;51.380;-0.176;2024-03-22T08:25:00;101540.59;;;12.41
29701;BMP280;57917;51.380;-0.176;2024-03-22T08:30:50;101539.53;;;12.27
29701;BMP280;57917;51.380;-0.176;2024-03-22T08:36:36;101540.59;;;12.51
29701;BMP280;57917;51.380;-0.176;2024-03-22T08:42:23;101544.59;;;12.74
29701;BMP280;57917;51.380;-0.176;2024-03-22T08:48:13;101538.41;;;12.94
29701;BMP280;57917;51.380;-0.176;2024-03-22T08:53:59;101532.03;;;12.90
29701;BMP280;57917;51.380;-0.176;2024-03-22T08:59:49;101533.69;;;12.81
29701;BMP280;57917;51.380;-0.176;2024-03-22T09:05:35;101541.28;;;13.22
29701;BMP280;57917;51.380;-0.176;2024-03-22T09:11:22;101524.03;;;13.05
29701;BMP280;57917;51.380;-0.176;2024-03-22T09:17:08;101514.97;;;13.21
29701;BMP280;57917;51.380;-0.176;2024-03-22T09:23:03;101507.91;;;13.50
29701;BMP280;57917;51.380;-0.176;2024-03-22T09:28:49;101498.41;;;13.82
29701;BMP280;57917;51.380;-0.176;2024-03-22T09:34:36;101490.63;;;13.91
29701;BMP280;57917;51.380;-0.176;2024-03-22T09:40:22;101485.78;;;13.98
29701;BMP280;57917;51.380;-0.176;2024-03-22T09:46:13;101494.19;;;14.10
29701;BMP280;57917;51.380;-0.176;2024-03-22T09:52:04;101491.97;;;13.88
29701;BMP280;57917;51.380;-0.176;2024-03-22T09:57:58;101500.91;;;14.07
29701;BMP280;57917;51.380;-0.176;2024-03-22T10:03:45;101491.19;;;13.88
29701;BMP280;57917;51.380;-0.176;2024-03-22T10:09:32;101486.28;;;14.00
29701;BMP280;57917;51.380;-0.176;2024-03-22T10:15:19;101492.09;;;14.07
29701;BMP280;57917;51.380;-0.176;2024-03-22T10:21:05;101489.31;;;14.22
29701;BMP280;57917;51.380;-0.176;2024-03-22T10:26:52;101477.44;;;14.09
29701;BMP280;57917;51.380;-0.176;2024-03-22T10:32:40;101476.53;;;13.85
29701;BMP280;57917;51.380;-0.176;2024-03-22T10:38:29;101472.59;;;13.78
29701;BMP280;57917;51.380;-0.176;2024-03-22T10:44:18;101477.44;;;13.76
29701;BMP280;57917;51.380;-0.176;2024-03-22T10:50:07;101478.41;;;13.85
29701;BMP280;57917;51.380;-0.176;2024-03-22T10:55:56;101474.53;;;13.72
29701;BMP280;57917;51.380;-0.176;2024-03-22T11:02:02;101485.91;;;13.78
29701;BMP280;57917;51.380;-0.176;2024-03-22T11:08:05;101494.97;;;13.28
29701;BMP280;57917;51.380;-0.176;2024-03-22T11:13:53;101501.00;;;11.85
29701;BMP280;57917;51.380;-0.176;2024-03-22T11:19:46;101503.69;;;11.28
29701;BMP280;57917;51.380;-0.176;2024-03-22T11:25:36;101524.94;;;11.38
29701;BMP280;57917;51.380;-0.176;2024-03-22T11:31:22;101509.47;;;11.92
29701;BMP280;57917;51.380;-0.176;2024-03-22T11:37:19;101496.22;;;12.42
29701;BMP280;57917;51.380;-0.176;2024-03-22T11:43:06;101500.75;;;12.46
29701;BMP280;57917;51.380;-0.176;2024-03-22T11:48:58;101483.50;;;12.09
29701;BMP280;57917;51.380;-0.176;2024-03-22T11:54:50;101500.69;;;11.81
29701;BMP280;57917;51.380;-0.176;2024-03-22T12:00:38;101482.09;;;11.66
29701;BMP280;57917;51.380;-0.176;2024-03-22T12:06:24;101479.78;;;11.85
29701;BMP280;57917;51.380;-0.176;2024-03-22T12:12:12;101486.91;;;11.64
29701;BMP280;57917;51.380;-0.176;2024-03-22T12:17:58;101482.66;;;11.78
29701;BMP280;57917;51.380;-0.176;2024-03-22T12:23:44;101481.34;;;11.86
29701;BMP280;57917;51.380;-0.176;2024-03-22T12:29:35;101470.78;;;12.21
29701;BMP280;57917;51.380;-0.176;2024-03-22T12:35:22;101454.03;;;12.10
29701;BMP280;57917;51.380;-0.176;2024-03-22T12:41:08;101452.16;;;12.46
29701;BMP280;57917;51.380;-0.176;2024-03-22T12:46:54;101445.25;;;12.60
29701;BMP280;57917;51.380;-0.176;2024-03-22T12:52:41;101432.47;;;12.72
29701;BMP280;57917;51.380;-0.176;2024-03-22T12:58:30;101433.47;;;12.91
29701;BMP280;57917;51.380;-0.176;2024-03-22T13:04:17;101418.59;;;12.95
29701;BMP280;57917;51.380;-0.176;2024-03-22T13:10:03;101424.94;;;12.99
29701;BMP280;57917;51.380;-0.176;2024-03-22T13:15:49;101415.63;;;12.97
29701;BMP280;57917;51.380;-0.176;2024-03-22T13:21:36;101403.16;;;12.92
29701;BMP280;57917;51.380;-0.176;2024-03-22T13:27:22;101390.84;;;13.06
29701;BMP280;57917;51.380;-0.176;2024-03-22T13:33:08;101370.44;;;12.92
29701;BMP280;57917;51.380;-0.176;2024-03-22T13:39:03;101397.97;;;12.62
29701;BMP280;57917;51.380;-0.176;2024-03-22T13:44:51;101371.81;;;12.89
29701;BMP280;57917;51.380;-0.176;2024-03-22T13:50:37;101348.91;;;12.98
29701;BMP280;57917;51.380;-0.176;2024-03-22T13:56:23;101342.75;;;13.08
29701;BMP280;57917;51.380;-0.176;2024-03-22T14:02:10;101334.00;;;13.07
29701;BMP280;57917;51.380;-0.176;2024-03-22T14:07:57;101327.75;;;13.22
29701;BMP280;57917;51.380;-0.176;2024-03-22T14:13:44;101338.38;;;13.22
29701;BMP280;57917;51.380;-0.176;2024-03-22T14:19:32;101323.53;;;13.21
29701;BMP280;57917;51.380;-0.176;2024-03-22T14:25:31;101306.50;;;13.17
29701;BMP280;57917;51.380;-0.176;2024-03-22T14:31:17;101285.91;;;12.99
29701;BMP280;57917;51.380;-0.176;2024-03-22T14:37:04;101272.31;;;12.56
29701;BMP280;57917;51.380;-0.176;2024-03-22T14:42:53;101271.56;;;12.46
29701;BMP280;57917;51.380;-0.176;2024-03-22T14:48:39;101286.84;;;12.20
29701;BMP280;57917;51.380;-0.176;2024-03-22T14:54:33;101266.09;;;12.22
29701;BMP280;57917;51.380;-0.176;2024-03-22T15:00:27;101257.63;;;12.10
29701;BMP280;57917;51.380;-0.176;2024-03-22T15:06:17;101240.09;;;12.24
29701;BMP280;57917;51.380;-0.176;2024-03-22T15:12:03;101230.22;;;12.30
29701;BMP280;57917;51.380;-0.176;2024-03-22T15:17:55;101242.41;;;12.41
29701;BMP280;57917;51.380;-0.176;2024-03-22T15:23:51;101234.34;;;12.61
29701;BMP280;57917;51.380;-0.176;2024-03-22T15:29:37;101224.59;;;12.46
29701;BMP280;57917;51.380;-0.176;2024-03-22T15:35:26;101214.59;;;12.23
29701;BMP280;57917;51.380;-0.176;2024-03-22T15:41:18;101221.00;;;12.12
29701;BMP280;57917;51.380;-0.176;2024-03-22T15:47:08;101210.78;;;12.44
29701;BMP280;57917;51.380;-0.176;2024-03-22T15:52:55;101210.31;;;12.32
29701;BMP280;57917;51.380;-0.176;2024-03-22T15:58:41;101210.25;;;12.42
29701;BMP280;57917;51.380;-0.176;2024-03-22T16:04:27;101201.06;;;12.73
29701;BMP280;57917;51.380;-0.176;2024-03-22T16:10:13;101206.25;;;12.89
29701;BMP280;57917;51.380;-0.176;2024-03-22T16:16:02;101197.47;;;13.22
29701;BMP280;57917;51.380;-0.176;2024-03-22T16:21:49;101182.53;;;13.31
29701;BMP280;57917;51.380;-0.176;2024-03-22T16:27:35;101177.38;;;13.11
29701;BMP280;57917;51.380;-0.176;2024-03-22T16:33:23;101181.88;;;12.82
29701;BMP280;57917;51.380;-0.176;2024-03-22T16:39:16;101176.75;;;12.90
29701;BMP280;57917;51.380;-0.176;2024-03-22T16:45:03;101167.19;;;12.89
29701;BMP280;57917;51.380;-0.176;2024-03-22T16:50:58;101161.63;;;12.86
29701;BMP280;57917;51.380;-0.176;2024-03-22T16:56:47;101162.81;;;12.74
29701;BMP280;57917;51.380;-0.176;2024-03-22T17:02:36;101145.78;;;12.70
29701;BMP280;57917;51.380;-0.176;2024-03-22T17:08:23;101160.84;;;12.46
29701;BMP280;57917;51.380;-0.176;2024-03-22T17:14:12;101137.03;;;12.31
29701;BMP280;57917;51.380;-0.176;2024-03-22T17:20:01;101130.00;;;12.07
29701;BMP280;57917;51.380;-0.176;2024-03-22T17:26:01;101131.84;;;12.11
29701;BMP280;57917;51.380;-0.176;2024-03-22T17:31:47;101148.78;;;12.15
29701;BMP280;57917;51.380;-0.176;2024-03-22T17:37:33;101144.53;;;12.19
29701;BMP280;57917;51.380;-0.176;2024-03-22T17:43:20;101134.50;;;12.11
29701;BMP280;57917;51.380;-0.176;2024-03-22T17:49:08;101121.34;;;11.91
29701;BMP280;57917;51.380;-0.176;2024-03-22T17:55:02;101111.50;;;11.92
29701;BMP280;57917;51.380;-0.176;2024-03-22T18:07:14;101114.19;;;11.87
29701;BMP280;57917;51.380;-0.176;2024-03-22T18:13:03;101122.41;;;11.80
29701;BMP280;57917;51.380;-0.176;2024-03-22T18:18:52;101113.34;;;11.96
29701;BMP280;57917;51.380;-0.176;2024-03-22T18:24:48;101122.91;;;11.92
29701;BMP280;57917;51.380;-0.176;2024-03-22T18:30:53;101117.41;;;11.79
29701;BMP280;57917;51.380;-0.176;2024-03-22T18:36:46;101124.84;;;11.72
29701;BMP280;57917;51.380;-0.176;2024-03-22T18:42:39;101129.84;;;11.83
29701;BMP280;57917;51.380;-0.176;2024-03-22T18:48:26;101125.91;;;11.66
29701;BMP280;57917;51.380;-0.176;2024-03-22T18:54:12;101132.03;;;11.66
29701;BMP280;57917;51.380;-0.176;2024-03-22T19:00:20;101137.38;;;11.46
29701;BMP280;57917;51.380;-0.176;2024-03-22T19:06:19;101147.97;;;11.46
29701;BMP280;57917;51.380;-0.176;2024-03-22T19:12:11;101147.97;;;11.46
29701;BMP280;57917;51.380;-0.176;2024-03-22T19:18:00;101144.78;;;11.44
29701;BMP280;57917;51.380;-0.176;2024-03-22T19:23:52;101137.94;;;11.08
29701;BMP280;57917;51.380;-0.176;2024-03-22T19:29:41;101125.72;;;10.82
29701;BMP280;57917;51.380;-0.176;2024-03-22T19:35:27;101136.09;;;10.88
29701;BMP280;57917;51.380;-0.176;2024-03-22T19:41:13;101146.66;;;10.63
29701;BMP280;57917;51.380;-0.176;2024-03-22T19:47:03;101148.72;;;10.51
29701;BMP280;57917;51.380;-0.176;2024-03-22T19:52:51;101148.94;;;10.30
29701;BMP280;57917;51.380;-0.176;2024-03-22T19:58:37;101147.25;;;10.04
29701;BMP280;57917;51.380;-0.176;2024-03-22T20:04:44;101162.09;;;10.15
29701;BMP280;57917;51.380;-0.176;2024-03-22T20:17:15;101159.41;;;10.00
29701;BMP280;57917;51.380;-0.176;2024-03-22T20:23:01;101164.69;;;10.05
29701;BMP280;57917;51.380;-0.176;2024-03-22T20:28:50;101156.72;;;9.89
29701;BMP280;57917;51.380;-0.176;2024-03-22T20:34:37;101155.50;;;9.65
